createdAt,value
2019-01-06T00:00:01.808Z,102409.22
2019-01-06T00:02:12.293Z,102404.20
2019-01-06T00:03:51.316Z,102403.27
2019-01-06T00:07:33.654Z,102403.01
2019-01-06T00:09:12.699Z,102397.35
2019-01-06T00:10:51.512Z,102399.39
2019-01-06T00:12:33.631Z,102401.12
2019-01-06T00:14:29.847Z,102402.81
2019-01-06T00:16:40.134Z,102403.52
2019-01-06T00:18:18.956Z,102399.84
2019-01-06T00:22:06.564Z,102398.50
2019-01-06T00:23:48.587Z,102401.53
2019-01-06T00:26:27.234Z,102405.27
2019-01-06T00:28:06.225Z,102403.31
2019-01-06T00:29:46.155Z,102392.34
2019-01-06T00:32:25.231Z,102404.02
2019-01-06T00:34:04.029Z,102408.74
2019-01-06T00:35:42.816Z,102405.91
2019-01-06T00:37:36.027Z,102403.47
2019-01-06T00:39:14.793Z,102403.81
2019-01-06T00:40:53.891Z,102405.30
2019-01-06T00:42:52.257Z,102405.51
2019-01-06T00:44:31.443Z,102407.48
2019-01-06T00:46:10.424Z,102403.81
2019-01-06T00:47:49.378Z,102402.33
2019-01-06T00:49:29.060Z,102402.18
2019-01-06T00:51:09.172Z,102396.11
2019-01-06T00:52:48.005Z,102398.16
2019-01-06T00:54:39.948Z,102398.50
2019-01-06T00:56:37.951Z,102401.53
2019-01-06T00:58:16.704Z,102399.14
2019-01-06T00:59:57.889Z,102391.94
2019-01-06T01:01:37.766Z,102400.84
2019-01-06T01:03:20.877Z,102408.25
2019-01-06T01:04:59.791Z,102400.69
2019-01-06T01:06:46.633Z,102395.47
2019-01-06T01:08:29.640Z,102404.72
2019-01-06T01:10:09.328Z,102390.39
2019-01-06T01:11:54.162Z,102398.01
2019-01-06T01:13:33.392Z,102396.17
2019-01-06T01:15:12.380Z,102396.81
2019-01-06T01:17:55.133Z,102395.21
2019-01-06T01:19:34.746Z,102393.22
2019-01-06T01:21:48.995Z,102403.37
2019-01-06T01:23:35.950Z,102401.69
2019-01-06T01:25:14.829Z,102405.45
2019-01-06T01:26:53.472Z,102405.30
2019-01-06T01:30:39.044Z,102398.24
2019-01-06T01:32:23.746Z,102410.03
2019-01-06T01:34:03.742Z,102405.22
2019-01-06T01:35:42.722Z,102406.91
2019-01-06T01:38:24.378Z,102402.77
2019-01-06T01:40:09.388Z,102413.21
2019-01-06T01:42:06.265Z,102412.36
2019-01-06T01:45:50.864Z,102410.52
2019-01-06T01:48:01.055Z,102407.70
2019-01-06T01:49:39.841Z,102413.41
2019-01-06T01:51:51.474Z,102408.05
2019-01-06T01:53:34.546Z,102405.51
2019-01-06T01:55:12.360Z,102415.11
2019-01-06T01:57:53.062Z,102412.57
2019-01-06T01:59:35.027Z,102408.05
2019-01-06T02:01:16.001Z,102400.63
2019-01-06T02:03:24.390Z,102400.63
2019-01-06T02:05:03.267Z,102413.50
2019-01-06T02:06:42.289Z,102409.48
2019-01-06T02:08:21.530Z,102416.53
2019-01-06T02:10:01.458Z,102410.82
2019-01-06T02:11:39.425Z,102416.19
2019-01-06T02:13:18.385Z,102413.85
2019-01-06T02:14:58.135Z,102410.47
2019-01-06T02:16:36.791Z,102413.06
2019-01-06T02:18:16.978Z,102416.83
2019-01-06T02:20:02.958Z,102414.50
2019-01-06T02:21:42.141Z,102424.24
2019-01-06T02:23:30.884Z,102417.73
2019-01-06T02:25:11.759Z,102415.69
2019-01-06T02:26:51.441Z,102413.70
2019-01-06T02:28:32.119Z,102408.19
2019-01-06T02:30:10.758Z,102416.59
2019-01-06T02:31:49.583Z,102416.68
2019-01-06T02:33:34.677Z,102418.02
2019-01-06T02:37:16.307Z,102418.72
2019-01-06T02:38:55.194Z,102411.02
2019-01-06T02:41:34.771Z,102417.03
2019-01-06T02:43:13.648Z,102420.77
2019-01-06T02:44:52.252Z,102415.69
2019-01-06T02:47:34.979Z,102416.13
2019-01-06T02:49:18.845Z,102402.95
2019-01-06T02:51:56.358Z,102403.05
2019-01-06T02:53:36.377Z,102397.80
2019-01-06T02:55:15.207Z,102398.73
2019-01-06T02:56:53.804Z,102404.11
2019-01-06T03:00:34.363Z,102410.82
2019-01-06T03:03:16.032Z,102416.04
2019-01-06T03:04:56.215Z,102412.31
2019-01-06T03:06:35.551Z,102405.09
2019-01-06T03:08:59.187Z,102405.70
2019-01-06T03:10:39.254Z,102408.39
2019-01-06T03:12:33.609Z,102407.78
2019-01-06T03:14:46.820Z,102403.88
2019-01-06T03:17:26.584Z,102413.16
2019-01-06T03:19:36.829Z,102407.48
2019-01-06T03:22:13.662Z,102404.95
2019-01-06T03:26:01.185Z,102401.12
2019-01-06T03:29:47.035Z,102396.55
2019-01-06T03:31:32.940Z,102389.98
2019-01-06T03:33:15.867Z,102380.59
2019-01-06T03:35:13.237Z,102382.69
2019-01-06T03:37:49.909Z,102390.24
2019-01-06T03:39:28.711Z,102394.62
2019-01-06T03:42:06.304Z,102399.14
2019-01-06T03:43:44.171Z,102398.16
2019-01-06T03:45:27.209Z,102392.93
2019-01-06T03:48:03.916Z,102400.72
2019-01-06T03:49:41.923Z,102396.75
2019-01-06T03:53:23.566Z,102393.91
2019-01-06T03:55:02.523Z,102386.36
2019-01-06T03:56:43.449Z,102394.27
2019-01-06T03:58:21.556Z,102378.59
2019-01-06T04:00:03.464Z,102385.86
2019-01-06T04:01:40.555Z,102384.52
2019-01-06T04:03:28.395Z,102382.33
2019-01-06T04:05:07.230Z,102388.05
2019-01-06T04:06:47.031Z,102384.02
2019-01-06T04:08:58.514Z,102381.19
2019-01-06T04:10:37.636Z,102374.62
2019-01-06T04:12:21.776Z,102375.97
2019-01-06T04:14:00.858Z,102371.44
2019-01-06T04:15:39.015Z,102370.95
2019-01-06T04:17:17.967Z,102361.50
2019-01-06T04:18:57.667Z,102367.91
2019-01-06T04:20:52.193Z,102363.39
2019-01-06T04:22:32.901Z,102363.88
2019-01-06T04:24:17.862Z,102369.60
2019-01-06T04:25:56.858Z,102374.86
2019-01-06T04:27:35.585Z,102370.33
2019-01-06T04:30:14.996Z,102368.00
2019-01-06T04:32:52.612Z,102373.28
2019-01-06T04:36:34.243Z,102374.70
2019-01-06T04:38:15.117Z,102370.88
2019-01-06T04:40:26.586Z,102363.67
2019-01-06T04:42:05.447Z,102365.36
2019-01-06T04:44:01.696Z,102361.28
2019-01-06T04:46:38.050Z,102361.34
2019-01-06T04:49:14.409Z,102358.50
2019-01-06T04:51:23.651Z,102362.03
2019-01-06T04:53:09.694Z,102354.35
2019-01-06T04:55:45.554Z,102354.85
2019-01-06T04:57:34.315Z,102358.00
2019-01-06T05:00:13.062Z,102355.47
2019-01-06T05:01:51.779Z,102349.40
2019-01-06T05:03:30.599Z,102348.55
2019-01-06T05:05:09.238Z,102346.37
2019-01-06T05:06:48.183Z,102352.08
2019-01-06T05:09:25.921Z,102344.52
2019-01-06T05:11:04.430Z,102355.77
2019-01-06T05:12:43.546Z,102353.79
2019-01-06T05:14:22.548Z,102347.77
2019-01-06T05:16:12.658Z,102350.80
2019-01-06T05:17:51.501Z,102343.48
2019-01-06T05:19:33.326Z,102345.31
2019-01-06T05:21:12.285Z,102343.10
2019-01-06T05:23:03.181Z,102349.55
2019-01-06T05:24:42.484Z,102343.18
2019-01-06T05:26:56.421Z,102338.45
2019-01-06T05:28:35.472Z,102349.89
2019-01-06T05:30:14.553Z,102348.55
2019-01-06T05:32:12.913Z,102346.91
2019-01-06T05:34:50.533Z,102351.23
2019-01-06T05:36:28.539Z,102344.09
2019-01-06T05:38:12.550Z,102337.88
2019-01-06T05:39:57.673Z,102336.04
2019-01-06T05:42:37.415Z,102338.72
2019-01-06T05:44:21.274Z,102340.80
2019-01-06T05:46:57.727Z,102336.62
2019-01-06T05:48:42.784Z,102334.78
2019-01-06T05:50:26.023Z,102336.81
2019-01-06T05:52:04.699Z,102329.76
2019-01-06T05:55:48.469Z,102324.69
2019-01-06T05:57:30.203Z,102323.34
2019-01-06T05:59:13.169Z,102333.78
2019-01-06T06:00:58.308Z,102330.10
2019-01-06T06:03:12.664Z,102328.77
2019-01-06T06:05:09.115Z,102324.09
2019-01-06T06:06:49.239Z,102331.15
2019-01-06T06:08:29.028Z,102319.06
2019-01-06T06:12:11.927Z,102324.43
2019-01-06T06:13:49.691Z,102318.09
2019-01-06T06:15:31.822Z,102322.13
2019-01-06T06:17:46.103Z,102319.44
2019-01-06T06:19:25.828Z,102324.81
2019-01-06T06:21:09.892Z,102336.89
2019-01-06T06:22:48.733Z,102326.16
2019-01-06T06:24:33.522Z,102330.88
2019-01-06T06:26:12.188Z,102334.56
2019-01-06T06:28:49.877Z,102338.09
2019-01-06T06:30:43.075Z,102343.81
2019-01-06T06:32:26.927Z,102342.97
2019-01-06T06:34:24.203Z,102346.00
2019-01-06T06:36:07.331Z,102344.66
2019-01-06T06:38:45.248Z,102347.34
2019-01-06T06:40:24.532Z,102349.38
2019-01-06T06:42:04.370Z,102347.54
2019-01-06T06:43:43.288Z,102351.91
2019-01-06T06:45:22.366Z,102356.09
2019-01-06T06:47:01.405Z,102354.60
2019-01-06T06:49:09.995Z,102352.76
2019-01-06T06:50:57.984Z,102358.13
2019-01-06T06:52:43.258Z,102353.75
2019-01-06T06:54:23.114Z,102352.27
2019-01-06T06:58:05.017Z,102346.00
2019-01-06T06:59:43.893Z,102345.55
2019-01-06T07:01:26.728Z,102340.97
2019-01-06T07:03:13.538Z,102337.24
2019-01-06T07:05:10.066Z,102350.33
2019-01-06T07:06:49.156Z,102342.53
2019-01-06T07:08:27.265Z,102345.72
2019-01-06T07:10:07.950Z,102342.84
2019-01-06T07:13:53.525Z,102336.39
2019-01-06T07:16:31.140Z,102338.72
2019-01-06T07:18:18.380Z,102336.19
2019-01-06T07:20:57.660Z,102340.22
2019-01-06T07:23:37.457Z,102340.36
2019-01-06T07:25:18.467Z,102340.71
2019-01-06T07:26:58.398Z,102336.34
2019-01-06T07:29:36.698Z,102343.05
2019-01-06T07:31:15.260Z,102340.52
2019-01-06T07:32:54.482Z,102338.33
2019-01-06T07:34:33.628Z,102343.00
2019-01-06T07:36:22.798Z,102343.34
2019-01-06T07:38:01.711Z,102349.56
2019-01-06T07:39:40.415Z,102353.09
2019-01-06T07:43:21.796Z,102358.31
2019-01-06T07:45:57.279Z,102363.39
2019-01-06T07:47:39.241Z,102361.78
2019-01-06T07:49:18.632Z,102360.20
2019-01-06T07:50:57.365Z,102363.67
2019-01-06T07:53:33.818Z,102365.36
2019-01-06T07:55:11.746Z,102361.91
2019-01-06T07:56:52.793Z,102361.41
2019-01-06T07:58:45.866Z,102356.39
2019-01-06T08:00:28.714Z,102366.98
2019-01-06T08:02:08.495Z,102366.57
2019-01-06T08:03:47.409Z,102365.92
2019-01-06T08:05:26.279Z,102361.05
2019-01-06T08:08:04.893Z,102365.23
2019-01-06T08:11:50.583Z,102363.88
2019-01-06T08:13:32.592Z,102368.45
2019-01-06T08:15:11.310Z,102367.12
2019-01-06T08:16:55.173Z,102364.35
2019-01-06T08:18:34.265Z,102365.69
2019-01-06T08:20:13.302Z,102365.23
2019-01-06T08:21:52.305Z,102365.58
2019-01-06T08:23:33.083Z,102363.88
2019-01-06T08:26:08.816Z,102358.36
2019-01-06T08:27:54.854Z,102353.61
2019-01-06T08:31:38.128Z,102354.53
2019-01-06T08:33:17.035Z,102352.89
2019-01-06T08:34:55.945Z,102353.19
2019-01-06T08:36:37.165Z,102353.38
2019-01-06T08:38:16.258Z,102342.45
2019-01-06T08:40:54.815Z,102349.16
2019-01-06T08:42:39.134Z,102351.50
2019-01-06T08:45:15.886Z,102349.85
2019-01-06T08:46:53.816Z,102341.90
2019-01-06T08:48:33.945Z,102345.13
2019-01-06T08:50:19.896Z,102345.70
2019-01-06T08:51:58.903Z,102349.18
2019-01-06T08:53:37.980Z,102343.31
2019-01-06T08:55:19.974Z,102337.64
2019-01-06T08:56:58.884Z,102340.92
2019-01-06T09:00:40.503Z,102342.62
2019-01-06T09:02:19.424Z,102332.57
2019-01-06T09:04:56.201Z,102331.16
2019-01-06T09:07:36.867Z,102331.05
2019-01-06T09:09:16.795Z,102337.61
2019-01-06T09:13:03.562Z,102337.07
2019-01-06T09:14:50.670Z,102342.27
2019-01-06T09:16:34.884Z,102343.41
2019-01-06T09:18:14.139Z,102338.34
2019-01-06T09:19:53.640Z,102343.91
2019-01-06T09:21:36.673Z,102335.69
2019-01-06T09:23:14.460Z,102337.02
2019-01-06T09:24:52.518Z,102339.06
2019-01-06T09:27:31.361Z,102339.22
2019-01-06T09:30:13.213Z,102341.05
2019-01-06T09:31:51.998Z,102344.59
2019-01-06T09:33:30.970Z,102344.28
2019-01-06T09:37:18.414Z,102346.34
2019-01-06T09:39:54.922Z,102343.59
2019-01-06T09:41:33.983Z,102343.51
2019-01-06T09:43:13.380Z,102345.55
2019-01-06T09:44:55.322Z,102343.36
2019-01-06T09:46:34.818Z,102346.17
2019-01-06T09:48:18.990Z,102341.90
2019-01-06T09:49:58.159Z,102341.17
2019-01-06T09:52:38.125Z,102338.19
2019-01-06T09:54:48.992Z,102342.69
2019-01-06T09:56:33.341Z,102344.68
2019-01-06T09:58:15.229Z,102342.69
2019-01-06T09:59:58.608Z,102338.58
2019-01-06T10:01:38.244Z,102335.17
2019-01-06T10:03:24.131Z,102346.30
2019-01-06T10:06:05.760Z,102343.97
2019-01-06T10:07:43.516Z,102344.19
2019-01-06T10:09:35.907Z,102345.39
2019-01-06T10:13:16.550Z,102350.98
2019-01-06T10:17:02.381Z,102345.48
2019-01-06T10:20:46.056Z,102340.88
2019-01-06T10:22:26.154Z,102343.52
2019-01-06T10:24:04.055Z,102337.84
2019-01-06T10:26:39.889Z,102338.25
2019-01-06T10:28:19.969Z,102329.64
2019-01-06T10:29:59.609Z,102333.86
2019-01-06T10:31:48.648Z,102335.30
2019-01-06T10:33:30.442Z,102329.98
2019-01-06T10:35:10.366Z,102326.45
2019-01-06T10:36:49.680Z,102321.69
2019-01-06T10:38:28.498Z,102322.66
2019-01-06T10:40:10.396Z,102322.58
2019-01-06T10:41:49.160Z,102318.89
2019-01-06T10:43:30.031Z,102313.01
2019-01-06T10:45:10.794Z,102312.22
2019-01-06T10:48:54.854Z,102310.53
2019-01-06T10:52:39.267Z,102310.53
2019-01-06T10:54:50.803Z,102314.91
2019-01-06T10:56:30.799Z,102315.38
2019-01-06T10:58:09.620Z,102304.27
2019-01-06T10:59:48.420Z,102302.70
2019-01-06T11:02:01.676Z,102294.27
2019-01-06T11:03:40.583Z,102299.78
2019-01-06T11:05:27.799Z,102290.42
2019-01-06T11:07:06.925Z,102300.38
2019-01-06T11:08:47.625Z,102302.22
2019-01-06T11:10:29.430Z,102298.16
2019-01-06T11:12:13.758Z,102299.89
2019-01-06T11:14:50.261Z,102297.73
2019-01-06T11:16:29.260Z,102294.40
2019-01-06T11:18:39.460Z,102287.77
2019-01-06T11:20:17.466Z,102293.96
2019-01-06T11:22:10.737Z,102294.52
2019-01-06T11:24:48.339Z,102290.09
2019-01-06T11:26:28.150Z,102293.12
2019-01-06T11:30:14.211Z,102294.40
2019-01-06T11:33:57.739Z,102293.71
2019-01-06T11:37:40.037Z,102285.33
2019-01-06T11:39:21.125Z,102293.20
2019-01-06T11:41:10.183Z,102294.02
2019-01-06T11:42:49.326Z,102291.17
2019-01-06T11:44:29.329Z,102292.52
2019-01-06T11:47:07.810Z,102295.14
2019-01-06T11:48:46.657Z,102294.09
2019-01-06T11:50:37.948Z,102292.38
2019-01-06T11:52:17.867Z,102301.31
2019-01-06T11:56:01.527Z,102298.86
2019-01-06T11:57:41.195Z,102296.43
2019-01-06T11:59:20.006Z,102308.50
2019-01-06T12:02:00.673Z,102300.98
2019-01-06T12:04:39.510Z,102305.27
2019-01-06T12:06:19.259Z,102300.73
2019-01-06T12:08:29.880Z,102295.73
2019-01-06T12:10:14.713Z,102302.59
2019-01-06T12:11:53.555Z,102299.10
2019-01-06T12:13:32.407Z,102304.28
2019-01-06T12:15:12.145Z,102303.32
2019-01-06T12:16:51.063Z,102302.64
2019-01-06T12:18:30.100Z,102304.95
2019-01-06T12:20:09.824Z,102298.63
2019-01-06T12:21:53.531Z,102301.81
2019-01-06T12:24:35.199Z,102297.97
2019-01-06T12:26:21.112Z,102297.13
2019-01-06T12:28:00.095Z,102297.34
2019-01-06T12:30:43.805Z,102292.09
2019-01-06T12:32:22.740Z,102278.98
2019-01-06T12:34:00.850Z,102289.55
2019-01-06T12:35:39.599Z,102292.89
2019-01-06T12:37:18.611Z,102290.66
2019-01-06T12:38:57.573Z,102297.71
2019-01-06T12:40:40.528Z,102293.70
2019-01-06T12:42:24.378Z,102293.64
2019-01-06T12:44:03.709Z,102294.27
2019-01-06T12:45:43.507Z,102283.27
2019-01-06T12:47:22.626Z,102291.92
2019-01-06T12:50:01.180Z,102297.39
2019-01-06T12:51:43.725Z,102295.26
2019-01-06T12:53:23.431Z,102289.31
2019-01-06T12:56:02.008Z,102294.33
2019-01-06T12:57:44.443Z,102292.64
2019-01-06T13:01:24.631Z,102287.69
2019-01-06T13:03:36.954Z,102282.59
2019-01-06T13:05:18.919Z,102280.14
2019-01-06T13:06:57.181Z,102274.26
2019-01-06T13:08:35.944Z,102267.85
2019-01-06T13:10:14.795Z,102268.20
2019-01-06T13:12:51.629Z,102265.50
2019-01-06T13:14:33.700Z,102266.16
2019-01-06T13:16:12.679Z,102272.80
2019-01-06T13:17:52.535Z,102273.17
2019-01-06T13:21:34.122Z,102280.48
2019-01-06T13:23:16.915Z,102276.20
2019-01-06T13:24:56.625Z,102277.27
2019-01-06T13:26:36.588Z,102275.27
2019-01-06T13:28:15.499Z,102283.73
2019-01-06T13:31:56.016Z,102265.08
2019-01-06T13:33:36.748Z,102278.72
2019-01-06T13:35:16.752Z,102282.09
2019-01-06T13:37:06.933Z,102278.55
2019-01-06T13:40:51.339Z,102273.31
2019-01-06T13:43:01.813Z,102278.20
2019-01-06T13:44:47.802Z,102272.70
2019-01-06T13:46:28.927Z,102265.76
2019-01-06T13:48:07.023Z,102265.91
2019-01-06T13:49:47.115Z,102262.07
2019-01-06T13:51:41.341Z,102263.13
2019-01-06T13:53:23.922Z,102279.70
2019-01-06T13:55:01.152Z,102274.33
2019-01-06T13:56:39.896Z,102270.45
2019-01-06T13:58:21.769Z,102273.20
2019-01-06T14:00:07.795Z,102266.76
2019-01-06T14:01:48.856Z,102270.30
2019-01-06T14:04:26.515Z,102274.64
2019-01-06T14:06:06.796Z,102277.52
2019-01-06T14:07:50.060Z,102278.20
2019-01-06T14:09:28.886Z,102285.58
2019-01-06T14:12:13.639Z,102282.73
2019-01-06T14:13:58.610Z,102281.77
2019-01-06T14:15:42.614Z,102275.17
2019-01-06T14:19:24.416Z,102278.52
2019-01-06T14:21:03.548Z,102267.39
2019-01-06T14:22:51.166Z,102269.70
2019-01-06T14:24:35.082Z,102273.70
2019-01-06T14:26:13.915Z,102271.91
2019-01-06T14:28:27.460Z,102266.53
2019-01-06T14:32:50.930Z,102275.53
2019-01-06T14:34:34.800Z,102275.34
2019-01-06T14:36:23.099Z,102273.16
2019-01-06T14:40:06.540Z,102272.24
2019-01-06T14:42:45.990Z,102273.43
2019-01-06T14:45:24.484Z,102274.50
2019-01-06T14:47:04.972Z,102266.63
2019-01-06T14:48:47.115Z,102267.13
2019-01-06T14:51:03.353Z,102274.26
2019-01-06T14:52:44.271Z,102276.29
2019-01-06T14:54:38.450Z,102274.63
2019-01-06T14:56:26.502Z,102278.39
2019-01-06T14:59:10.374Z,102273.36
2019-01-06T15:02:51.889Z,102276.08
2019-01-06T15:05:07.160Z,102268.08
2019-01-06T15:06:46.059Z,102272.61
2019-01-06T15:08:27.005Z,102269.77
2019-01-06T15:10:04.859Z,102268.58
2019-01-06T15:13:46.616Z,102264.05
2019-01-06T15:16:24.817Z,102258.84
2019-01-06T15:20:08.526Z,102252.97
2019-01-06T15:21:48.395Z,102258.19
2019-01-06T15:23:40.517Z,102254.16
2019-01-06T15:25:20.109Z,102252.62
2019-01-06T15:29:03.918Z,102244.56
2019-01-06T15:30:42.644Z,102245.50
2019-01-06T15:32:26.663Z,102245.47
2019-01-06T15:34:09.507Z,102235.72
2019-01-06T15:37:52.426Z,102237.72
2019-01-06T15:40:31.047Z,102245.03
2019-01-06T15:42:23.323Z,102250.09
2019-01-06T15:44:16.917Z,102254.13
2019-01-06T15:46:55.684Z,102248.06
2019-01-06T15:48:34.358Z,102242.00
2019-01-06T15:50:24.676Z,102241.28
2019-01-06T15:52:22.546Z,102260.41
2019-01-06T15:54:02.569Z,102249.62
2019-01-06T15:55:48.799Z,102257.45
2019-01-06T15:59:33.648Z,102256.42
2019-01-06T16:01:46.251Z,102255.52
2019-01-06T16:05:29.080Z,102250.10
2019-01-06T16:07:42.301Z,102253.61
2019-01-06T16:09:21.224Z,102254.95
2019-01-06T16:10:59.999Z,102255.30
2019-01-06T16:12:57.324Z,102255.67
2019-01-06T16:15:41.914Z,102254.68
2019-01-06T16:17:24.569Z,102261.73
2019-01-06T16:19:24.501Z,102263.77
2019-01-06T16:22:07.899Z,102263.43
2019-01-06T16:23:58.191Z,102262.12
2019-01-06T16:25:38.146Z,102270.41
2019-01-06T16:27:20.943Z,102272.75
2019-01-06T16:29:05.979Z,102274.28
2019-01-06T16:30:45.700Z,102274.33
2019-01-06T16:32:25.679Z,102273.70
2019-01-06T16:34:36.160Z,102269.33
2019-01-06T16:37:16.822Z,102259.95
2019-01-06T16:41:03.247Z,102257.95
2019-01-06T16:42:48.362Z,102263.68
2019-01-06T16:45:27.806Z,102267.71
2019-01-06T16:47:06.950Z,102272.31
2019-01-06T16:50:53.051Z,102270.47
2019-01-06T16:52:34.832Z,102258.03
2019-01-06T16:54:30.864Z,102263.90
2019-01-06T16:56:40.383Z,102265.37
2019-01-06T16:58:20.401Z,102259.27
2019-01-06T17:00:00.249Z,102262.98
2019-01-06T17:02:14.634Z,102259.30
2019-01-06T17:04:51.617Z,102260.99
2019-01-06T17:06:30.559Z,102264.75
2019-01-06T17:09:11.216Z,102258.72
2019-01-06T17:10:50.485Z,102256.38
2019-01-06T17:12:44.771Z,102252.53
2019-01-06T17:14:23.854Z,102261.81
2019-01-06T17:16:04.011Z,102268.03
2019-01-06T17:17:49.966Z,102262.31
2019-01-06T17:20:37.060Z,102262.78
2019-01-06T17:22:23.488Z,102261.31
2019-01-06T17:26:10.307Z,102260.59
2019-01-06T17:29:51.766Z,102255.28
2019-01-06T17:32:34.462Z,102255.81
2019-01-06T17:35:16.019Z,102271.32
2019-01-06T17:36:54.862Z,102264.79
2019-01-06T17:38:33.524Z,102261.60
2019-01-06T17:40:15.349Z,102264.29
2019-01-06T17:42:10.320Z,102264.63
2019-01-06T17:43:49.568Z,102259.41
2019-01-06T17:45:28.783Z,102258.06
2019-01-06T17:47:07.823Z,102261.60
2019-01-06T17:48:46.017Z,102250.44
2019-01-06T17:50:24.767Z,102254.53
2019-01-06T17:52:15.030Z,102251.16
2019-01-06T17:54:08.806Z,102258.56
2019-01-06T17:55:47.571Z,102254.88
2019-01-06T17:57:28.494Z,102248.94
2019-01-06T17:59:07.362Z,102251.44
2019-01-06T18:00:57.760Z,102252.97
2019-01-06T18:02:36.672Z,102255.19
2019-01-06T18:04:32.573Z,102253.84
2019-01-06T18:06:10.430Z,102259.22
2019-01-06T18:07:59.651Z,102261.53
2019-01-06T18:09:43.688Z,102251.16
2019-01-06T18:11:22.615Z,102256.66
2019-01-06T18:13:03.440Z,102250.28
2019-01-06T18:14:58.701Z,102248.47
2019-01-06T18:16:37.467Z,102238.19
2019-01-06T18:18:16.196Z,102235.03
2019-01-06T18:20:03.286Z,102221.34
2019-01-06T18:23:46.589Z,102238.34
2019-01-06T18:25:56.857Z,102230.25
2019-01-06T18:28:34.673Z,102233.59
2019-01-06T18:30:31.076Z,102230.84
2019-01-06T18:32:09.965Z,102221.75
2019-01-06T18:34:49.786Z,102222.43
2019-01-06T18:36:37.867Z,102225.12
2019-01-06T18:39:15.742Z,102227.99
2019-01-06T18:40:55.758Z,102224.46
2019-01-06T18:42:34.432Z,102221.43
2019-01-06T18:44:13.423Z,102220.75
2019-01-06T18:45:57.289Z,102226.12
2019-01-06T18:47:35.954Z,102235.22
2019-01-06T18:49:14.737Z,102239.09
2019-01-06T18:50:54.668Z,102238.97
2019-01-06T18:54:36.443Z,102244.53
2019-01-06T18:56:14.162Z,102252.84
2019-01-06T18:58:51.074Z,102248.94
2019-01-06T19:01:02.229Z,102251.84
2019-01-06T19:02:57.980Z,102240.78
2019-01-06T19:06:40.764Z,102242.12
2019-01-06T19:10:22.340Z,102240.75
2019-01-06T19:13:02.757Z,102241.75
2019-01-06T19:14:44.777Z,102243.03
2019-01-06T19:16:51.694Z,102240.19
2019-01-06T19:18:30.647Z,102236.31
2019-01-06T19:21:11.308Z,102235.31
2019-01-06T19:22:56.000Z,102238.59
2019-01-06T19:24:43.043Z,102236.63
2019-01-06T19:26:29.651Z,102235.44
2019-01-06T19:30:10.321Z,102236.91
2019-01-06T19:31:49.365Z,102238.59
2019-01-06T19:35:34.844Z,102234.72
2019-01-06T19:39:18.573Z,102232.49
2019-01-06T19:40:57.614Z,102231.59
2019-01-06T19:42:37.555Z,102240.48
2019-01-06T19:46:22.029Z,102236.95
2019-01-06T19:49:03.969Z,102225.45
2019-01-06T19:53:02.292Z,102221.55
2019-01-06T19:55:16.746Z,102234.22
2019-01-06T19:59:04.445Z,102226.23
2019-01-06T20:00:45.854Z,102226.70
2019-01-06T20:02:27.167Z,102232.14
2019-01-06T20:04:13.071Z,102232.29
2019-01-06T20:06:01.893Z,102235.52
2019-01-06T20:07:57.597Z,102235.73
2019-01-06T20:09:37.357Z,102243.14
2019-01-06T20:11:19.772Z,102252.20
2019-01-06T20:13:05.362Z,102259.95
2019-01-06T20:15:21.475Z,102264.68
2019-01-06T20:17:00.307Z,102271.13
2019-01-06T20:18:45.313Z,102257.53
2019-01-06T20:20:24.153Z,102267.44
2019-01-06T20:22:13.153Z,102257.37
2019-01-06T20:23:52.995Z,102253.00
2019-01-06T20:25:35.827Z,102253.27
2019-01-06T20:28:12.654Z,102254.00
2019-01-06T20:29:52.599Z,102245.28
2019-01-06T20:32:28.012Z,102253.00
2019-01-06T20:34:06.970Z,102244.09
2019-01-06T20:37:49.480Z,102249.66
2019-01-06T20:39:28.256Z,102240.31
2019-01-06T20:41:44.765Z,102241.66
2019-01-06T20:43:24.635Z,102242.69
2019-01-06T20:45:03.532Z,102236.47
2019-01-06T20:46:42.464Z,102237.81
2019-01-06T20:49:24.849Z,102234.55
2019-01-06T20:51:08.733Z,102239.31
2019-01-06T20:52:52.940Z,102239.50
2019-01-06T20:56:39.286Z,102241.69
2019-01-06T20:58:18.106Z,102244.03
2019-01-06T21:00:30.824Z,102244.84
2019-01-06T21:02:15.073Z,102243.34
2019-01-06T21:03:53.865Z,102248.75
2019-01-06T21:05:35.801Z,102248.09
2019-01-06T21:08:13.527Z,102246.47
2019-01-06T21:09:52.330Z,102248.16
2019-01-06T21:11:31.129Z,102240.78
2019-01-06T21:13:09.949Z,102239.78
2019-01-06T21:14:49.847Z,102233.37
2019-01-06T21:16:28.605Z,102239.78
2019-01-06T21:18:31.683Z,102241.47
2019-01-06T21:22:17.621Z,102238.09
2019-01-06T21:24:30.719Z,102242.19
2019-01-06T21:26:09.657Z,102236.63
2019-01-06T21:27:48.521Z,102240.50
2019-01-06T21:29:57.561Z,102236.13
2019-01-06T21:31:41.814Z,102239.94
2019-01-06T21:33:21.704Z,102231.84
2019-01-06T21:36:01.359Z,102236.78
2019-01-06T21:37:40.006Z,102235.91
2019-01-06T21:39:25.798Z,102232.88
2019-01-06T21:41:08.927Z,102225.66
2019-01-06T21:44:55.667Z,102231.88
2019-01-06T21:48:37.530Z,102223.80
2019-01-06T21:50:19.372Z,102215.05
2019-01-06T21:52:27.530Z,102213.34
2019-01-06T21:54:06.217Z,102211.99
2019-01-06T21:55:45.074Z,102212.96
2019-01-06T21:57:27.077Z,102217.37
2019-01-06T21:59:06.916Z,102216.15
2019-01-06T22:00:47.909Z,102213.62
2019-01-06T22:04:34.586Z,102220.18
2019-01-06T22:06:16.788Z,102223.36
2019-01-06T22:08:54.201Z,102219.64
2019-01-06T22:12:36.970Z,102225.05
2019-01-06T22:14:35.120Z,102219.33
2019-01-06T22:16:29.190Z,102219.30
2019-01-06T22:18:18.348Z,102212.59
2019-01-06T22:20:02.925Z,102219.30
2019-01-06T22:22:44.887Z,102221.42
2019-01-06T22:24:23.745Z,102213.98
2019-01-06T22:26:13.116Z,102221.05
2019-01-06T22:27:54.077Z,102209.30
2019-01-06T22:30:33.778Z,102212.14
2019-01-06T22:32:23.790Z,102208.80
2019-01-06T22:35:06.798Z,102210.83
2019-01-06T22:36:53.680Z,102210.48
2019-01-06T22:38:36.653Z,102211.33
2019-01-06T22:40:20.693Z,102211.67
2019-01-06T22:42:00.600Z,102208.48
2019-01-06T22:45:44.842Z,102218.73
2019-01-06T22:48:27.731Z,102215.08
2019-01-06T22:52:09.418Z,102217.89
2019-01-06T22:53:49.695Z,102219.95
2019-01-06T22:55:29.904Z,102213.73
2019-01-06T22:57:08.945Z,102214.36
2019-01-06T22:58:48.893Z,102214.70
2019-01-06T23:01:30.963Z,102216.92
2019-01-06T23:04:08.521Z,102212.83
2019-01-06T23:05:47.067Z,102219.89
2019-01-06T23:08:25.242Z,102225.95
2019-01-06T23:10:06.146Z,102228.02
2019-01-06T23:11:50.307Z,102221.64
2019-01-06T23:13:29.115Z,102224.67
2019-01-06T23:15:14.221Z,102219.14
2019-01-06T23:17:00.602Z,102216.77
2019-01-06T23:18:39.500Z,102218.64
2019-01-06T23:20:18.170Z,102213.08
2019-01-06T23:22:01.527Z,102207.36
2019-01-06T23:24:41.319Z,102214.92
2019-01-06T23:26:21.402Z,102212.92
2019-01-06T23:28:00.265Z,102207.64